createdAt,value
2024-04-21T00:01:37.135Z,4.5
2024-04-21T00:04:03.228Z,4.6
2024-04-21T00:06:29.320Z,4.6
2024-04-21T00:08:55.408Z,4.7
2024-04-21T00:11:21.518Z,4.7
2024-04-21T00:13:47.606Z,4.8
2024-04-21T00:16:13.707Z,4.7
2024-04-21T00:18:39.803Z,4.7
2024-04-21T00:21:05.917Z,4.7
2024-04-21T00:23:32.117Z,4.6
2024-04-21T00:25:58.093Z,4.6
2024-04-21T00:28:24.179Z,4.6
2024-04-21T00:30:50.273Z,4.6
2024-04-21T00:33:15.398Z,4.6
2024-04-21T00:35:41.503Z,4.7
2024-04-21T00:38:07.587Z,4.7
2024-04-21T00:40:33.685Z,4.8
2024-04-21T00:42:59.781Z,4.9
2024-04-21T00:45:25.869Z,4.9
2024-04-21T00:47:51.975Z,5
2024-04-21T00:50:18.080Z,5.1
2024-04-21T00:52:44.164Z,5.1
2024-04-21T00:55:10.261Z,5.1
2024-04-21T00:57:36.352Z,5.1
2024-04-21T01:00:02.454Z,5
2024-04-21T01:02:28.566Z,5.1
2024-04-21T01:04:53.657Z,5.1
2024-04-21T01:07:19.761Z,5
2024-04-21T01:09:45.847Z,5
2024-04-21T01:12:11.944Z,5
2024-04-21T01:14:38.048Z,5.1
2024-04-21T01:17:04.155Z,5.1
2024-04-21T01:19:30.230Z,5.2
2024-04-21T01:21:56.323Z,5.3
2024-04-21T01:24:22.431Z,5.4
2024-04-21T01:26:48.524Z,5.4
2024-04-21T01:29:14.628Z,5.4
2024-04-21T01:31:40.720Z,5.5
2024-04-21T01:34:06.814Z,5.5
2024-04-21T01:36:31.919Z,5.5
2024-04-21T01:38:58.026Z,5.5
2024-04-21T01:41:24.130Z,5.6
2024-04-21T01:43:50.227Z,5.6
2024-04-21T01:46:16.308Z,5.6
2024-04-21T01:48:42.404Z,5.7
2024-04-21T01:51:08.498Z,5.7
2024-04-21T01:53:34.587Z,5.7
2024-04-21T01:56:00.684Z,5.7
2024-04-21T01:58:26.777Z,5.7
2024-04-21T02:00:52.883Z,5.7
2024-04-21T02:03:18.975Z,5.8
2024-04-21T02:05:45.057Z,5.8
2024-04-21T02:08:10.166Z,5.8
2024-04-21T02:10:36.273Z,5.8
2024-04-21T02:13:02.374Z,5.9
2024-04-21T02:15:28.459Z,5.9
2024-04-21T02:17:54.581Z,5.9
2024-04-21T02:20:20.650Z,5.9
2024-04-21T02:22:46.757Z,5.9
2024-04-21T02:25:12.854Z,5.9
2024-04-21T02:27:39.040Z,6
2024-04-21T02:30:05.030Z,5.9
2024-04-21T02:32:31.140Z,6
2024-04-21T02:34:57.231Z,6
2024-04-21T02:37:23.325Z,6
2024-04-21T02:39:48.443Z,6
2024-04-21T02:42:14.523Z,6
2024-04-21T02:44:40.639Z,6
2024-04-21T02:47:06.736Z,6.1
2024-04-21T02:49:32.824Z,6
2024-04-21T02:51:58.926Z,6
2024-04-21T02:54:25.020Z,5.9
2024-04-21T02:56:51.115Z,5.9
2024-04-21T02:59:17.193Z,5.9
2024-04-21T03:01:43.308Z,5.9
2024-04-21T03:04:09.391Z,5.9
2024-04-21T03:06:35.506Z,5.9
2024-04-21T03:09:01.595Z,5.8
2024-04-21T03:11:26.704Z,5.8
2024-04-21T03:13:52.814Z,5.7
2024-04-21T03:16:18.902Z,5.6
2024-04-21T03:18:44.976Z,5.6
2024-04-21T03:21:11.069Z,5.5
2024-04-21T03:23:37.166Z,5.5
2024-04-21T03:26:03.283Z,5.3
2024-04-21T03:28:29.368Z,5.1
2024-04-21T03:30:55.460Z,4.9
2024-04-21T03:33:21.572Z,4.7
2024-04-21T03:35:47.658Z,4.6
2024-04-21T03:38:13.756Z,4.5
2024-04-21T03:40:39.857Z,4.4
2024-04-21T03:43:05.097Z,4.4
2024-04-21T03:45:31.069Z,4.4
2024-04-21T03:47:57.158Z,4.4
2024-04-21T03:50:23.260Z,4.4
2024-04-21T03:52:49.346Z,4.4
2024-04-21T03:55:15.446Z,4.4
2024-04-21T03:57:41.532Z,4.5
2024-04-21T04:00:07.626Z,4.5
2024-04-21T04:02:33.718Z,4.5
2024-04-21T04:04:59.832Z,4.6
2024-04-21T04:07:25.932Z,4.6
2024-04-21T04:09:52.023Z,4.6
2024-04-21T04:12:18.127Z,4.6
2024-04-21T04:14:43.233Z,4.6
2024-04-21T04:17:09.316Z,4.6
2024-04-21T04:19:35.423Z,4.7
2024-04-21T04:22:01.510Z,4.8
2024-04-21T04:24:27.604Z,4.8
2024-04-21T04:26:53.697Z,4.8
2024-04-21T04:29:19.795Z,4.8
2024-04-21T04:31:45.906Z,4.9
2024-04-21T04:34:12.014Z,4.9
2024-04-21T04:36:38.086Z,4.9
2024-04-21T04:39:04.198Z,4.9
2024-04-21T04:41:30.283Z,5
2024-04-21T04:43:56.388Z,5
2024-04-21T04:46:21.483Z,5
2024-04-21T04:48:47.584Z,5
2024-04-21T04:51:13.679Z,5.1
2024-04-21T04:53:39.818Z,5.1
2024-04-21T04:56:05.863Z,5
2024-04-21T04:58:32.302Z,5
2024-04-21T05:00:58.069Z,5
2024-04-21T05:03:24.163Z,5
2024-04-21T05:05:50.280Z,5
2024-04-21T05:08:16.370Z,5
2024-04-21T05:10:42.453Z,5
2024-04-21T05:13:08.539Z,4.9
2024-04-21T05:15:34.647Z,4.9
2024-04-21T05:17:59.796Z,4.9
2024-04-21T05:20:25.851Z,4.9
2024-04-21T05:22:51.953Z,4.9
2024-04-21T05:25:18.045Z,4.9
2024-04-21T05:27:44.135Z,5
2024-04-21T05:30:10.245Z,5
2024-04-21T05:32:36.344Z,5.1
2024-04-21T05:35:02.455Z,5.1
2024-04-21T05:37:28.542Z,5
2024-04-21T05:39:54.633Z,5
2024-04-21T05:42:20.716Z,5.1
2024-04-21T05:44:46.820Z,5.1
2024-04-21T05:47:12.922Z,5.1
2024-04-21T05:49:38.032Z,5.1
2024-04-21T05:52:04.123Z,5.1
2024-04-21T05:54:30.224Z,5.1
2024-04-21T05:56:56.304Z,5.2
2024-04-21T05:59:22.390Z,5.2
2024-04-21T06:01:48.505Z,5.2
2024-04-21T06:04:14.613Z,5.2
2024-04-21T06:06:40.690Z,5.2
2024-04-21T06:09:06.788Z,5.2
2024-04-21T06:11:32.879Z,5.3
2024-04-21T06:13:58.964Z,5.3
2024-04-21T06:16:25.071Z,5.2
2024-04-21T06:18:51.194Z,5.3
2024-04-21T06:21:16.295Z,5.4
2024-04-21T06:23:42.364Z,5.4
2024-04-21T06:26:08.476Z,5.5
2024-04-21T06:28:34.573Z,5.5
2024-04-21T06:31:00.674Z,5.5
2024-04-21T06:33:26.763Z,5.5
2024-04-21T06:35:52.886Z,5.6
2024-04-21T06:38:18.952Z,5.6
2024-04-21T06:40:45.062Z,5.6
2024-04-21T06:43:11.142Z,5.6
2024-04-21T06:45:37.242Z,5.7
2024-04-21T06:48:03.337Z,5.9
2024-04-21T06:50:29.439Z,6
2024-04-21T06:52:54.552Z,6
2024-04-21T06:55:20.658Z,6
2024-04-21T06:57:46.749Z,6
2024-04-21T07:00:12.831Z,5.9
2024-04-21T07:02:38.934Z,6
2024-04-21T07:05:05.026Z,6.1
2024-04-21T07:07:31.124Z,6
2024-04-21T07:09:57.223Z,6
2024-04-21T07:12:23.316Z,6
2024-04-21T07:14:49.404Z,6.1
2024-04-21T07:17:15.519Z,6.1
2024-04-21T07:19:41.592Z,6.2
2024-04-21T07:22:07.699Z,6.1
2024-04-21T07:24:32.807Z,6
2024-04-21T07:26:58.914Z,6.1
2024-04-21T07:29:25.011Z,6.3
2024-04-21T07:31:51.098Z,6.4
2024-04-21T07:34:17.200Z,6.4
2024-04-21T07:36:43.283Z,6.3
2024-04-21T07:39:08.412Z,6.3
2024-04-21T07:41:34.500Z,6.2
2024-04-21T07:44:00.601Z,6.2
2024-04-21T07:46:26.704Z,6.4
2024-04-21T07:48:52.796Z,6.4
2024-04-21T07:51:18.917Z,6.3
2024-04-21T07:53:44.965Z,6.5
2024-04-21T07:56:11.079Z,6.5
2024-04-21T07:58:37.173Z,6.8
2024-04-21T08:01:03.272Z,7
2024-04-21T08:03:29.365Z,6.8
2024-04-21T08:05:55.460Z,6.8
2024-04-21T08:08:21.550Z,6.7
2024-04-21T08:10:46.667Z,6.6
2024-04-21T08:13:12.778Z,6.6
2024-04-21T08:15:38.862Z,6.7
2024-04-21T08:18:04.945Z,6.8
2024-04-21T08:20:31.050Z,6.8
2024-04-21T08:22:57.145Z,6.8
2024-04-21T08:25:23.237Z,6.8
2024-04-21T08:27:49.338Z,6.8
2024-04-21T08:30:15.440Z,6.8
2024-04-21T08:32:41.534Z,6.9
2024-04-21T08:35:07.641Z,6.9
2024-04-21T08:37:33.721Z,6.8
2024-04-21T08:39:59.816Z,7
2024-04-21T08:42:25.897Z,7.2
2024-04-21T08:44:51.982Z,7.2
2024-04-21T08:47:18.115Z,7.2
2024-04-21T08:49:44.196Z,6.8
2024-04-21T08:52:10.269Z,6.9
2024-04-21T08:54:36.373Z,6.9
2024-04-21T08:57:02.474Z,6.9
2024-04-21T08:59:28.573Z,7
2024-04-21T09:01:53.680Z,7
2024-04-21T09:04:19.770Z,7.2
2024-04-21T09:06:45.852Z,7.2
2024-04-21T09:09:11.959Z,7.4
2024-04-21T09:11:38.056Z,7.3
2024-04-21T09:14:04.152Z,7.1
2024-04-21T09:16:30.233Z,7.2
2024-04-21T09:18:56.347Z,7.2
2024-04-21T09:21:22.448Z,7.2
2024-04-21T09:23:48.527Z,7.3
2024-04-21T09:26:14.616Z,7.1
2024-04-21T09:28:40.718Z,7.2
2024-04-21T09:31:06.797Z,7.5
2024-04-21T09:33:31.922Z,7.7
2024-04-21T09:35:58.030Z,7.7
2024-04-21T09:38:24.120Z,7.7
2024-04-21T09:40:50.210Z,7.8
2024-04-21T09:43:16.294Z,8.2
2024-04-21T09:45:42.386Z,8
2024-04-21T09:48:08.492Z,8.5
2024-04-21T09:50:34.575Z,8.5
2024-04-21T09:53:00.666Z,8.8
2024-04-21T09:55:26.776Z,8.6
2024-04-21T09:57:52.877Z,8.4
2024-04-21T10:00:18.953Z,8.5
2024-04-21T10:02:45.056Z,8.5
2024-04-21T10:05:10.165Z,8.5
2024-04-21T10:07:36.262Z,8.2
2024-04-21T10:10:02.370Z,8.2
2024-04-21T10:12:28.455Z,8.5
2024-04-21T10:14:54.553Z,8.7
2024-04-21T10:17:20.624Z,8.9
2024-04-21T10:19:46.738Z,9
2024-04-21T10:22:12.829Z,8.9
2024-04-21T10:24:38.926Z,8.8
2024-04-21T10:27:05.034Z,8.7
2024-04-21T10:29:31.122Z,9.1
2024-04-21T10:31:57.216Z,9
2024-04-21T10:34:23.299Z,9
2024-04-21T10:36:48.410Z,8.9
2024-04-21T10:39:14.533Z,9.5
2024-04-21T10:41:40.593Z,9.3
2024-04-21T10:44:06.695Z,9.3
2024-04-21T10:46:32.815Z,9
2024-04-21T10:48:58.876Z,9.5
2024-04-21T10:51:24.981Z,9.5
2024-04-21T10:53:51.092Z,9.5
2024-04-21T10:56:17.171Z,9.5
2024-04-21T10:58:43.256Z,9.6
2024-04-21T11:01:09.355Z,9.7
2024-04-21T11:03:35.450Z,10
2024-04-21T11:06:01.555Z,10
2024-04-21T11:08:26.677Z,10
2024-04-21T11:10:52.763Z,9.9
2024-04-21T11:13:18.863Z,10.2
2024-04-21T11:15:44.949Z,9.6
2024-04-21T11:18:11.040Z,10
2024-04-21T11:20:37.149Z,10
2024-04-21T11:23:03.230Z,9.6
2024-04-21T11:25:29.319Z,9.4
2024-04-21T11:27:55.434Z,9.4
2024-04-21T11:30:21.525Z,9.6
2024-04-21T11:32:47.606Z,9.5
2024-04-21T11:35:13.721Z,9.6
2024-04-21T11:37:39.799Z,9.9
2024-04-21T11:40:04.899Z,10.3
2024-04-21T11:42:31.006Z,9.9
2024-04-21T11:44:57.087Z,10.5
2024-04-21T11:47:23.199Z,10.2
2024-04-21T11:49:49.287Z,10.4
2024-04-21T11:52:15.378Z,11
2024-04-21T11:54:41.483Z,11
2024-04-21T11:57:07.566Z,11.1
2024-04-21T11:59:33.676Z,11.3
2024-04-21T12:01:59.767Z,11
2024-04-21T12:04:25.876Z,10.7
2024-04-21T12:06:51.952Z,10.3
2024-04-21T12:09:18.033Z,10
2024-04-21T12:11:44.150Z,10
2024-04-21T12:14:10.240Z,10
2024-04-21T12:16:36.335Z,10
2024-04-21T12:19:02.420Z,10.2
2024-04-21T12:21:28.531Z,10.7
2024-04-21T12:23:53.625Z,10.8
2024-04-21T12:26:19.740Z,10.8
2024-04-21T12:28:45.821Z,10.8
2024-04-21T12:31:11.924Z,10.6
2024-04-21T12:33:38.003Z,10.8
2024-04-21T12:36:04.099Z,10.7
2024-04-21T12:38:30.208Z,11.1
2024-04-21T12:40:56.306Z,11.2
2024-04-21T12:43:22.382Z,10.9
2024-04-21T12:45:48.485Z,11
2024-04-21T12:48:14.574Z,11.5
2024-04-21T12:50:40.674Z,11.3
2024-04-21T12:53:06.772Z,10.4
2024-04-21T12:55:31.932Z,10
2024-04-21T12:57:57.967Z,9.8
2024-04-21T13:00:24.088Z,9.9
2024-04-21T13:02:50.163Z,9.8
2024-04-21T13:05:16.270Z,10.1
2024-04-21T13:07:42.336Z,10.2
2024-04-21T13:10:08.456Z,10.1
2024-04-21T13:12:34.547Z,10
2024-04-21T13:15:00.646Z,9.8
2024-04-21T13:17:26.726Z,9.5
2024-04-21T13:19:52.822Z,9.5
2024-04-21T13:22:18.937Z,9.5
2024-04-21T13:24:45.017Z,9.6
2024-04-21T13:27:10.134Z,9.7
2024-04-21T13:29:36.214Z,9.7
2024-04-21T13:32:02.309Z,9.7
2024-04-21T13:34:28.419Z,9.9
2024-04-21T13:36:54.509Z,10
2024-04-21T13:39:20.614Z,9.9
2024-04-21T13:41:46.697Z,10
2024-04-21T13:44:12.797Z,10.1
2024-04-21T13:46:38.907Z,10.6
2024-04-21T13:49:04.988Z,10.3
2024-04-21T13:51:31.084Z,10.7
2024-04-21T13:53:57.170Z,10.7
2024-04-21T13:56:23.314Z,10.7
2024-04-21T13:58:48.374Z,10.8
2024-04-21T14:01:14.473Z,10.9
2024-04-21T14:03:40.558Z,10.4
2024-04-21T14:06:06.663Z,10.3
2024-04-21T14:08:32.765Z,10.1
2024-04-21T14:10:58.839Z,10.6
2024-04-21T14:13:24.953Z,10.8
2024-04-21T14:15:51.042Z,10.5
2024-04-21T14:18:17.116Z,10.3
2024-04-21T14:20:43.212Z,10.1
2024-04-21T14:23:09.301Z,10.6
2024-04-21T14:25:35.404Z,10.6
2024-04-21T14:28:01.497Z,10.3
2024-04-21T14:30:26.631Z,10.2
2024-04-21T14:32:52.711Z,10.3
2024-04-21T14:35:18.788Z,10.3
2024-04-21T14:37:44.894Z,9.9
2024-04-21T14:40:11.005Z,9.8
2024-04-21T14:42:37.081Z,9.7
2024-04-21T14:45:03.199Z,9.7
2024-04-21T14:47:29.284Z,9.7
2024-04-21T14:49:55.385Z,9.8
2024-04-21T14:52:21.476Z,9.9
2024-04-21T14:54:47.561Z,10.1
2024-04-21T14:57:13.658Z,9.8
2024-04-21T14:59:39.761Z,9.6
2024-04-21T15:02:04.868Z,9.8
2024-04-21T15:04:30.969Z,9.9
2024-04-21T15:06:57.072Z,9.6
2024-04-21T15:09:23.147Z,9.4
2024-04-21T15:11:49.236Z,9.4
2024-04-21T15:14:15.346Z,9.2
2024-04-21T15:16:41.478Z,9.4
2024-04-21T15:19:07.548Z,9.3
2024-04-21T15:21:33.641Z,9.4
2024-04-21T15:23:59.883Z,9.7
2024-04-21T15:26:25.938Z,10
2024-04-21T15:28:52.311Z,10.3
2024-04-21T15:31:18.010Z,10.3
2024-04-21T15:33:43.113Z,10.6
2024-04-21T15:36:09.221Z,10.4
2024-04-21T15:38:35.307Z,10.5
2024-04-21T15:41:01.403Z,10.4
2024-04-21T15:43:27.487Z,10.3
2024-04-21T15:45:53.596Z,10.3
2024-04-21T15:48:18.703Z,10
2024-04-21T15:50:44.826Z,10.1
2024-04-21T15:53:10.961Z,9.6
2024-04-21T15:55:37.011Z,9.5
2024-04-21T15:58:03.111Z,9.7
2024-04-21T16:00:29.211Z,9.7
2024-04-21T16:02:55.281Z,9.9
2024-04-21T16:05:21.403Z,9.9
2024-04-21T16:07:47.483Z,9.5
2024-04-21T16:10:13.602Z,9.5
2024-04-21T16:12:39.666Z,9.4
2024-04-21T16:15:05.749Z,9.1
2024-04-21T16:17:31.851Z,8.8
2024-04-21T16:19:56.985Z,8.8
2024-04-21T16:22:23.076Z,9.1
2024-04-21T16:24:49.171Z,9.1
2024-04-21T16:27:15.256Z,9.2
2024-04-21T16:29:41.340Z,8.9
2024-04-21T16:32:07.426Z,8.7
2024-04-21T16:34:33.540Z,8.5
2024-04-21T16:36:59.621Z,8.6
2024-04-21T16:39:25.716Z,8.5
2024-04-21T16:41:51.825Z,8.4
2024-04-21T16:44:17.924Z,8.7
2024-04-21T16:46:43.996Z,8.6
2024-04-21T16:49:10.084Z,8.6
2024-04-21T16:51:35.225Z,8.7
2024-04-21T16:54:01.306Z,8.5
2024-04-21T16:56:27.407Z,8.1
2024-04-21T16:58:53.494Z,8.2
2024-04-21T17:01:19.596Z,8.3
2024-04-21T17:03:45.671Z,8.3
2024-04-21T17:06:11.774Z,8.2
2024-04-21T17:08:37.938Z,8
2024-04-21T17:11:03.956Z,8
2024-04-21T17:13:30.064Z,7.8
2024-04-21T17:15:56.173Z,7.8
2024-04-21T17:18:22.258Z,7.7
2024-04-21T17:20:48.338Z,7.7
2024-04-21T17:23:13.468Z,7.6
2024-04-21T17:25:39.559Z,7.7
2024-04-21T17:28:05.651Z,7.7
2024-04-21T17:30:31.739Z,7.7
2024-04-21T17:32:57.882Z,7.5
2024-04-21T17:35:24.001Z,7.5
2024-04-21T17:37:50.017Z,7.4
2024-04-21T17:40:16.129Z,7.3
2024-04-21T17:42:42.236Z,7.4
2024-04-21T17:45:08.323Z,7.3
2024-04-21T17:47:34.442Z,7.3
2024-04-21T17:50:00.495Z,7.3
2024-04-21T17:52:26.608Z,7.3
2024-04-21T17:57:17.826Z,7.3
2024-04-21T17:59:43.896Z,7.2
2024-04-21T18:02:09.996Z,7.1
2024-04-21T18:04:36.084Z,7.1
2024-04-21T18:07:02.177Z,7.1
2024-04-21T18:09:28.288Z,7.1
2024-04-21T18:11:54.370Z,7.1
2024-04-21T18:14:20.454Z,7.1
2024-04-21T18:16:46.570Z,7.1
2024-04-21T18:19:12.667Z,6.9
2024-04-21T18:21:38.753Z,6.9
2024-04-21T18:24:04.852Z,6.9
2024-04-21T18:26:29.962Z,6.9
2024-04-21T18:28:56.055Z,6.9
2024-04-21T18:31:22.153Z,6.9
2024-04-21T18:33:48.235Z,6.8
2024-04-21T18:36:14.339Z,6.7
2024-04-21T18:38:40.447Z,6.7
2024-04-21T18:41:06.596Z,6.7
2024-04-21T18:43:32.653Z,6.7
2024-04-21T18:45:58.719Z,6.7
2024-04-21T18:48:24.802Z,6.7
2024-04-21T18:50:50.920Z,6.7
2024-04-21T18:53:17.009Z,6.7
2024-04-21T18:55:43.126Z,6.7
2024-04-21T18:58:08.231Z,6.6
2024-04-21T19:00:34.318Z,6.6
2024-04-21T19:03:00.399Z,6.6
2024-04-21T19:05:26.499Z,6.7
2024-04-21T19:07:52.595Z,6.6
2024-04-21T19:10:18.678Z,6.6
2024-04-21T19:12:44.811Z,6.6
2024-04-21T19:15:10.888Z,6.5
2024-04-21T19:17:36.968Z,6.4
2024-04-21T19:20:03.081Z,6.4
2024-04-21T19:22:29.178Z,6.3
2024-04-21T19:24:55.250Z,6.3
2024-04-21T19:27:21.404Z,6.3
2024-04-21T19:29:46.480Z,6.3
2024-04-21T19:32:12.565Z,6.3
2024-04-21T19:34:38.661Z,6.4
2024-04-21T19:37:04.776Z,6.3
2024-04-21T19:39:30.860Z,6.4
2024-04-21T19:41:56.944Z,6.4
2024-04-21T19:44:23.070Z,6.3
2024-04-21T19:46:49.160Z,6.3
2024-04-21T19:49:15.227Z,6.3
2024-04-21T19:51:41.351Z,6.3
2024-04-21T19:54:07.425Z,6.3
2024-04-21T19:56:33.536Z,6.3
2024-04-21T19:58:59.616Z,6.3
2024-04-21T20:01:24.721Z,6.3
2024-04-21T20:03:50.814Z,6.3
2024-04-21T20:06:16.945Z,6.3
2024-04-21T20:08:43.002Z,6.3
2024-04-21T20:11:09.115Z,6.3
2024-04-21T20:13:35.209Z,6.3
2024-04-21T20:16:01.318Z,6.3
2024-04-21T20:18:27.401Z,6.3
2024-04-21T20:20:53.493Z,6.4
2024-04-21T20:23:19.589Z,6.4
2024-04-21T20:25:45.709Z,6.4
2024-04-21T20:28:11.774Z,6.4
2024-04-21T20:30:37.855Z,6.4
2024-04-21T20:33:02.985Z,6.4
2024-04-21T20:35:29.079Z,6.4
2024-04-21T20:37:55.172Z,6.4
2024-04-21T20:40:21.274Z,6.5
2024-04-21T20:42:47.358Z,6.5
2024-04-21T20:45:13.438Z,6.5
2024-04-21T20:47:39.549Z,6.5
2024-04-21T20:50:05.666Z,6.4
2024-04-21T20:52:31.753Z,6.4
2024-04-21T20:54:57.844Z,6.4
2024-04-21T20:57:23.930Z,6.4
2024-04-21T20:59:50.030Z,6.4
2024-04-21T21:02:16.106Z,6.4
2024-04-21T21:04:41.239Z,6.4
2024-04-21T21:07:07.330Z,6.4
2024-04-21T21:09:33.422Z,6.4
2024-04-21T21:11:59.635Z,6.4
2024-04-21T21:14:25.624Z,6.3
2024-04-21T21:16:51.714Z,6.3
2024-04-21T21:19:17.798Z,6.3
2024-04-21T21:21:43.899Z,6.3
2024-04-21T21:24:09.981Z,6.3
2024-04-21T21:26:36.085Z,6.3
2024-04-21T21:29:02.183Z,6.3
2024-04-21T21:31:28.276Z,6.3
2024-04-21T21:33:54.376Z,6.2
2024-04-21T21:36:19.479Z,6.2
2024-04-21T21:38:45.589Z,6.2
2024-04-21T21:41:11.683Z,6.2
2024-04-21T21:43:37.779Z,6.2
2024-04-21T21:46:03.896Z,6.1
2024-04-21T21:48:29.977Z,6.1
2024-04-21T21:50:56.048Z,6.2
2024-04-21T21:53:22.214Z,6.2
2024-04-21T21:55:48.246Z,6.2
2024-04-21T21:58:14.359Z,6.2
2024-04-21T22:00:40.446Z,6.2
2024-04-21T22:03:06.535Z,6.1
2024-04-21T22:05:32.687Z,6.1
2024-04-21T22:07:58.863Z,6.1
2024-04-21T22:10:24.959Z,6.2
2024-04-21T22:12:51.048Z,6.1
2024-04-21T22:15:17.155Z,6.2
2024-04-21T22:17:43.242Z,6.2
2024-04-21T22:20:09.333Z,6.1
2024-04-21T22:22:35.445Z,6.2
2024-04-21T22:25:01.512Z,6.1
2024-04-21T22:27:27.632Z,6.1
2024-04-21T22:29:53.733Z,6.1
2024-04-21T22:32:19.847Z,6
2024-04-21T22:34:45.931Z,6
2024-04-21T22:37:12.003Z,6
2024-04-21T22:39:37.108Z,6
2024-04-21T22:42:03.197Z,6
2024-04-21T22:44:29.314Z,6
2024-04-21T22:46:55.443Z,6
2024-04-21T22:49:21.507Z,6
2024-04-21T22:51:47.582Z,6
2024-04-21T22:54:13.677Z,6
2024-04-21T22:56:39.795Z,6
2024-04-21T22:59:05.894Z,6
2024-04-21T23:01:31.966Z,6
2024-04-21T23:03:58.059Z,5.9
2024-04-21T23:06:24.168Z,6
2024-04-21T23:08:50.269Z,6
2024-04-21T23:11:15.363Z,6
2024-04-21T23:13:41.463Z,5.9
2024-04-21T23:16:07.600Z,5.9
2024-04-21T23:18:33.655Z,5.9
2024-04-21T23:20:59.753Z,5.9
2024-04-21T23:23:25.853Z,5.9
2024-04-21T23:25:51.949Z,5.9
2024-04-21T23:28:18.053Z,5.9
2024-04-21T23:30:44.146Z,5.8
2024-04-21T23:33:10.251Z,5.8
2024-04-21T23:35:36.347Z,5.8
2024-04-21T23:38:02.413Z,5.8
2024-04-21T23:40:28.566Z,5.8
2024-04-21T23:42:53.627Z,5.8
2024-04-21T23:45:19.760Z,5.7
2024-04-21T23:47:45.834Z,5.7
2024-04-21T23:50:11.916Z,5.7
2024-04-21T23:52:38.022Z,5.8
2024-04-21T23:55:04.120Z,5.7
2024-04-21T23:57:29.239Z,5.7
2024-04-21T23:59:55.324Z,5.7
